sensor_id;sensor_type;location;lat;lon;timestamp;temperature;humidity
14741;DHT22;7462;53.530;9.414;2023-05-03T00:01:34;8.10;99.90
14741;DHT22;7462;53.530;9.414;2023-05-03T00:04:03;7.90;99.90
14741;DHT22;7462;53.530;9.414;2023-05-03T00:06:31;7.90;99.90
14741;DHT22;7462;53.530;9.414;2023-05-03T00:09:00;7.80;99.90
14741;DHT22;7462;53.530;9.414;2023-05-03T00:11:28;7.80;99.90
14741;DHT22;7462;53.530;9.414;2023-05-03T00:13:56;7.70;99.90
14741;DHT22;7462;53.530;9.414;2023-05-03T00:16:24;7.80;99.90
14741;DHT22;7462;53.530;9.414;2023-05-03T00:18:54;7.80;99.90
14741;DHT22;7462;53.530;9.414;2023-05-03T00:21:22;7.80;99.90
14741;DHT22;7462;53.530;9.414;2023-05-03T00:23:50;7.70;99.90
14741;DHT22;7462;53.530;9.414;2023-05-03T00:26:19;7.90;99.90
14741;DHT22;7462;53.530;9.414;2023-05-03T00:28:48;7.80;99.90
14741;DHT22;7462;53.530;9.414;2023-05-03T00:31:16;7.80;99.90
14741;DHT22;7462;53.530;9.414;2023-05-03T00:33:45;7.70;99.90
14741;DHT22;7462;53.530;9.414;2023-05-03T00:36:15;7.60;99.90
14741;DHT22;7462;53.530;9.414;2023-05-03T00:38:43;7.60;99.90
14741;DHT22;7462;53.530;9.414;2023-05-03T00:41:11;7.60;99.90
14741;DHT22;7462;53.530;9.414;2023-05-03T00:43:39;7.50;99.90
14741;DHT22;7462;53.530;9.414;2023-05-03T00:46:09;7.50;99.90
14741;DHT22;7462;53.530;9.414;2023-05-03T00:48:43;7.30;99.90
14741;DHT22;7462;53.530;9.414;2023-05-03T00:51:14;7.30;99.90
14741;DHT22;7462;53.530;9.414;2023-05-03T00:53:42;7.30;99.90
14741;DHT22;7462;53.530;9.414;2023-05-03T00:56:13;7.30;99.90
14741;DHT22;7462;53.530;9.414;2023-05-03T00:58:43;7.30;99.90
14741;DHT22;7462;53.530;9.414;2023-05-03T01:01:11;7.10;99.90
14741;DHT22;7462;53.530;9.414;2023-05-03T01:03:41;7.20;99.90
14741;DHT22;7462;53.530;9.414;2023-05-03T01:06:14;7.20;99.90
14741;DHT22;7462;53.530;9.414;2023-05-03T01:08:49;7.20;99.90
14741;DHT22;7462;53.530;9.414;2023-05-03T01:11:29;7.00;99.90
14741;DHT22;7462;53.530;9.414;2023-05-03T01:14:06;7.00;99.90
14741;DHT22;7462;53.530;9.414;2023-05-03T01:16:40;6.90;99.90
14741;DHT22;7462;53.530;9.414;2023-05-03T01:19:18;6.80;99.90
14741;DHT22;7462;53.530;9.414;2023-05-03T01:21:58;6.70;99.90
14741;DHT22;7462;53.530;9.414;2023-05-03T01:24:31;6.70;99.90
14741;DHT22;7462;53.530;9.414;2023-05-03T01:27:03;6.70;99.90
14741;DHT22;7462;53.530;9.414;2023-05-03T01:29:31;6.80;99.90
14741;DHT22;7462;53.530;9.414;2023-05-03T01:32:00;6.70;99.90
14741;DHT22;7462;53.530;9.414;2023-05-03T01:34:39;6.60;99.90
14741;DHT22;7462;53.530;9.414;2023-05-03T01:37:10;6.60;99.90
14741;DHT22;7462;53.530;9.414;2023-05-03T01:39:45;6.50;99.90
14741;DHT22;7462;53.530;9.414;2023-05-03T01:42:16;6.50;99.90
14741;DHT22;7462;53.530;9.414;2023-05-03T01:44:47;6.60;99.90
14741;DHT22;7462;53.530;9.414;2023-05-03T01:47:16;6.80;99.90
14741;DHT22;7462;53.530;9.414;2023-05-03T01:49:44;6.90;99.90
14741;DHT22;7462;53.530;9.414;2023-05-03T01:52:13;6.90;99.90
14741;DHT22;7462;53.530;9.414;2023-05-03T01:54:43;7.00;99.90
14741;DHT22;7462;53.530;9.414;2023-05-03T01:57:11;7.00;99.90
14741;DHT22;7462;53.530;9.414;2023-05-03T01:59:42;7.00;99.90
14741;DHT22;7462;53.530;9.414;2023-05-03T02:02:10;7.20;99.90
14741;DHT22;7462;53.530;9.414;2023-05-03T02:04:39;7.00;99.90
14741;DHT22;7462;53.530;9.414;2023-05-03T02:07:08;7.10;99.90
14741;DHT22;7462;53.530;9.414;2023-05-03T02:09:36;7.00;99.90
14741;DHT22;7462;53.530;9.414;2023-05-03T02:12:05;7.10;99.90
14741;DHT22;7462;53.530;9.414;2023-05-03T02:14:33;7.10;99.90
14741;DHT22;7462;53.530;9.414;2023-05-03T02:17:02;7.00;99.90
14741;DHT22;7462;53.530;9.414;2023-05-03T02:19:30;6.90;99.90
14741;DHT22;7462;53.530;9.414;2023-05-03T02:21:59;6.80;99.90
14741;DHT22;7462;53.530;9.414;2023-05-03T02:24:27;6.80;99.90
14741;DHT22;7462;53.530;9.414;2023-05-03T02:26:57;6.90;99.90
14741;DHT22;7462;53.530;9.414;2023-05-03T02:29:25;6.80;99.90
14741;DHT22;7462;53.530;9.414;2023-05-03T02:31:53;6.70;99.90
14741;DHT22;7462;53.530;9.414;2023-05-03T02:34:23;6.70;99.90
14741;DHT22;7462;53.530;9.414;2023-05-03T02:36:51;6.80;99.90
14741;DHT22;7462;53.530;9.414;2023-05-03T02:39:20;6.80;99.90
14741;DHT22;7462;53.530;9.414;2023-05-03T02:41:49;7.00;99.90
14741;DHT22;7462;53.530;9.414;2023-05-03T02:44:17;7.00;99.90
14741;DHT22;7462;53.530;9.414;2023-05-03T02:46:45;7.10;99.90
14741;DHT22;7462;53.530;9.414;2023-05-03T02:49:15;7.20;99.90
14741;DHT22;7462;53.530;9.414;2023-05-03T02:51:45;7.00;99.90
14741;DHT22;7462;53.530;9.414;2023-05-03T02:54:13;7.10;99.90
14741;DHT22;7462;53.530;9.414;2023-05-03T02:56:42;7.00;99.90
14741;DHT22;7462;53.530;9.414;2023-05-03T02:59:10;6.90;99.90
14741;DHT22;7462;53.530;9.414;2023-05-03T03:01:39;7.20;99.90
14741;DHT22;7462;53.530;9.414;2023-05-03T03:04:08;7.40;99.90
14741;DHT22;7462;53.530;9.414;2023-05-03T03:06:36;7.50;99.90
14741;DHT22;7462;53.530;9.414;2023-05-03T03:09:06;7.60;99.90
14741;DHT22;7462;53.530;9.414;2023-05-03T03:11:34;7.70;99.90
14741;DHT22;7462;53.530;9.414;2023-05-03T03:14:02;7.60;99.90
14741;DHT22;7462;53.530;9.414;2023-05-03T03:16:30;7.70;99.90
14741;DHT22;7462;53.530;9.414;2023-05-03T03:18:58;7.40;99.90
14741;DHT22;7462;53.530;9.414;2023-05-03T03:21:26;7.30;99.90
14741;DHT22;7462;53.530;9.414;2023-05-03T03:23:55;7.30;99.90
14741;DHT22;7462;53.530;9.414;2023-05-03T03:26:25;7.30;99.90
14741;DHT22;7462;53.530;9.414;2023-05-03T03:28:53;7.40;99.90
14741;DHT22;7462;53.530;9.414;2023-05-03T03:31:22;7.50;99.90
14741;DHT22;7462;53.530;9.414;2023-05-03T03:33:53;7.50;99.90
14741;DHT22;7462;53.530;9.414;2023-05-03T03:36:24;7.30;99.90
14741;DHT22;7462;53.530;9.414;2023-05-03T03:38:54;7.20;99.90
14741;DHT22;7462;53.530;9.414;2023-05-03T03:41:25;7.30;99.90
14741;DHT22;7462;53.530;9.414;2023-05-03T03:43:55;7.30;99.90
14741;DHT22;7462;53.530;9.414;2023-05-03T03:46:24;7.40;99.90
14741;DHT22;7462;53.530;9.414;2023-05-03T03:48:55;7.70;99.90
14741;DHT22;7462;53.530;9.414;2023-05-03T03:51:25;7.70;99.90
14741;DHT22;7462;53.530;9.414;2023-05-03T03:53:54;7.70;99.90
14741;DHT22;7462;53.530;9.414;2023-05-03T03:56:27;7.40;99.90
14741;DHT22;7462;53.530;9.414;2023-05-03T03:58:56;7.20;99.90
14741;DHT22;7462;53.530;9.414;2023-05-03T04:01:24;7.20;99.90
14741;DHT22;7462;53.530;9.414;2023-05-03T04:03:52;7.30;99.90
14741;DHT22;7462;53.530;9.414;2023-05-03T04:06:20;7.20;99.90
14741;DHT22;7462;53.530;9.414;2023-05-03T04:08:49;7.50;99.90
14741;DHT22;7462;53.530;9.414;2023-05-03T04:11:17;7.60;99.90
14741;DHT22;7462;53.530;9.414;2023-05-03T04:13:54;7.60;99.90
14741;DHT22;7462;53.530;9.414;2023-05-03T04:16:22;7.80;99.90
14741;DHT22;7462;53.530;9.414;2023-05-03T04:18:50;7.70;99.90
14741;DHT22;7462;53.530;9.414;2023-05-03T04:21:18;7.70;99.90
14741;DHT22;7462;53.530;9.414;2023-05-03T04:23:47;7.70;99.90
14741;DHT22;7462;53.530;9.414;2023-05-03T04:26:17;7.80;99.90
14741;DHT22;7462;53.530;9.414;2023-05-03T04:29:06;7.90;99.90
14741;DHT22;7462;53.530;9.414;2023-05-03T04:31:35;7.90;99.90
14741;DHT22;7462;53.530;9.414;2023-05-03T04:34:03;8.00;99.90
14741;DHT22;7462;53.530;9.414;2023-05-03T04:36:31;7.80;99.90
14741;DHT22;7462;53.530;9.414;2023-05-03T04:39:00;7.70;99.90
14741;DHT22;7462;53.530;9.414;2023-05-03T04:41:28;7.80;99.90
14741;DHT22;7462;53.530;9.414;2023-05-03T04:43:56;7.70;99.90
14741;DHT22;7462;53.530;9.414;2023-05-03T04:46:28;8.00;99.90
14741;DHT22;7462;53.530;9.414;2023-05-03T04:48:56;8.10;99.90
14741;DHT22;7462;53.530;9.414;2023-05-03T04:51:24;8.30;99.90
14741;DHT22;7462;53.530;9.414;2023-05-03T04:53:54;8.40;99.90
14741;DHT22;7462;53.530;9.414;2023-05-03T04:56:22;8.30;99.90
14741;DHT22;7462;53.530;9.414;2023-05-03T04:58:58;8.10;99.90
14741;DHT22;7462;53.530;9.414;2023-05-03T05:01:27;8.30;99.90
14741;DHT22;7462;53.530;9.414;2023-05-03T05:03:59;8.30;99.90
14741;DHT22;7462;53.530;9.414;2023-05-03T05:06:34;8.10;99.90
14741;DHT22;7462;53.530;9.414;2023-05-03T05:09:06;8.30;99.90
14741;DHT22;7462;53.530;9.414;2023-05-03T05:11:34;8.20;99.90
14741;DHT22;7462;53.530;9.414;2023-05-03T05:14:02;8.20;99.90
14741;DHT22;7462;53.530;9.414;2023-05-03T05:16:33;8.10;99.90
14741;DHT22;7462;53.530;9.414;2023-05-03T05:19:01;8.10;99.90
14741;DHT22;7462;53.530;9.414;2023-05-03T05:21:30;8.10;99.90
14741;DHT22;7462;53.530;9.414;2023-05-03T05:23:58;8.10;99.90
14741;DHT22;7462;53.530;9.414;2023-05-03T05:26:26;8.30;99.90
14741;DHT22;7462;53.530;9.414;2023-05-03T05:28:55;8.20;99.90
14741;DHT22;7462;53.530;9.414;2023-05-03T05:31:23;8.40;99.90
14741;DHT22;7462;53.530;9.414;2023-05-03T05:33:53;8.30;99.90
14741;DHT22;7462;53.530;9.414;2023-05-03T05:36:22;8.30;99.90
14741;DHT22;7462;53.530;9.414;2023-05-03T05:38:50;8.40;99.90
14741;DHT22;7462;53.530;9.414;2023-05-03T05:41:18;8.40;99.90
14741;DHT22;7462;53.530;9.414;2023-05-03T05:43:46;8.40;99.90
14741;DHT22;7462;53.530;9.414;2023-05-03T05:46:15;8.40;99.90
14741;DHT22;7462;53.530;9.414;2023-05-03T05:48:44;8.40;99.90
14741;DHT22;7462;53.530;9.414;2023-05-03T05:51:13;8.50;99.90
14741;DHT22;7462;53.530;9.414;2023-05-03T05:53:42;8.50;99.90
14741;DHT22;7462;53.530;9.414;2023-05-03T05:56:10;8.50;99.90
14741;DHT22;7462;53.530;9.414;2023-05-03T05:58:38;8.50;99.90
14741;DHT22;7462;53.530;9.414;2023-05-03T06:01:08;8.60;99.90
14741;DHT22;7462;53.530;9.414;2023-05-03T06:03:37;8.60;99.90
14741;DHT22;7462;53.530;9.414;2023-05-03T06:06:07;8.60;99.90
14741;DHT22;7462;53.530;9.414;2023-05-03T06:08:37;8.60;99.90
14741;DHT22;7462;53.530;9.414;2023-05-03T06:11:05;8.60;99.90
14741;DHT22;7462;53.530;9.414;2023-05-03T06:13:34;8.70;99.90
14741;DHT22;7462;53.530;9.414;2023-05-03T06:16:05;8.80;99.90
14741;DHT22;7462;53.530;9.414;2023-05-03T06:18:33;8.80;99.90
14741;DHT22;7462;53.530;9.414;2023-05-03T06:21:02;8.80;99.90
14741;DHT22;7462;53.530;9.414;2023-05-03T06:23:30;8.90;99.90
14741;DHT22;7462;53.530;9.414;2023-05-03T06:26:01;8.90;99.90
14741;DHT22;7462;53.530;9.414;2023-05-03T06:28:29;8.90;99.90
14741;DHT22;7462;53.530;9.414;2023-05-03T06:30:58;9.00;99.90
14741;DHT22;7462;53.530;9.414;2023-05-03T06:33:29;9.00;99.90
14741;DHT22;7462;53.530;9.414;2023-05-03T06:35:57;9.00;99.90
14741;DHT22;7462;53.530;9.414;2023-05-03T06:38:27;9.10;99.90
14741;DHT22;7462;53.530;9.414;2023-05-03T06:40:56;9.10;99.90
14741;DHT22;7462;53.530;9.414;2023-05-03T06:43:25;9.20;99.90
14741;DHT22;7462;53.530;9.414;2023-05-03T06:45:59;9.30;99.90
14741;DHT22;7462;53.530;9.414;2023-05-03T06:48:28;9.40;99.90
14741;DHT22;7462;53.530;9.414;2023-05-03T06:50:56;9.50;99.90
14741;DHT22;7462;53.530;9.414;2023-05-03T06:53:24;9.60;99.90
14741;DHT22;7462;53.530;9.414;2023-05-03T06:55:52;9.80;99.90
14741;DHT22;7462;53.530;9.414;2023-05-03T06:58:20;10.00;99.90
14741;DHT22;7462;53.530;9.414;2023-05-03T07:00:52;10.10;99.90
14741;DHT22;7462;53.530;9.414;2023-05-03T07:03:20;10.20;99.90
14741;DHT22;7462;53.530;9.414;2023-05-03T07:05:49;10.40;99.90
14741;DHT22;7462;53.530;9.414;2023-05-03T07:08:17;10.60;99.90
14741;DHT22;7462;53.530;9.414;2023-05-03T07:10:45;10.70;99.90
14741;DHT22;7462;53.530;9.414;2023-05-03T07:13:13;10.70;99.90
14741;DHT22;7462;53.530;9.414;2023-05-03T07:15:41;10.80;99.90
14741;DHT22;7462;53.530;9.414;2023-05-03T07:18:12;10.60;99.90
14741;DHT22;7462;53.530;9.414;2023-05-03T07:20:41;10.50;99.90
14741;DHT22;7462;53.530;9.414;2023-05-03T07:23:09;10.40;99.90
14741;DHT22;7462;53.530;9.414;2023-05-03T07:25:37;10.40;99.90
14741;DHT22;7462;53.530;9.414;2023-05-03T07:28:05;10.40;99.90
14741;DHT22;7462;53.530;9.414;2023-05-03T07:30:33;10.50;99.90
14741;DHT22;7462;53.530;9.414;2023-05-03T07:33:01;10.50;99.90
14741;DHT22;7462;53.530;9.414;2023-05-03T07:35:31;10.70;99.90
14741;DHT22;7462;53.530;9.414;2023-05-03T07:37:59;10.70;99.90
14741;DHT22;7462;53.530;9.414;2023-05-03T07:40:28;10.80;99.90
14741;DHT22;7462;53.530;9.414;2023-05-03T07:42:58;11.00;99.90
14741;DHT22;7462;53.530;9.414;2023-05-03T07:45:27;11.00;99.90
14741;DHT22;7462;53.530;9.414;2023-05-03T07:47:55;11.20;99.90
14741;DHT22;7462;53.530;9.414;2023-05-03T07:50:24;11.20;99.90
14741;DHT22;7462;53.530;9.414;2023-05-03T07:52:53;11.10;99.90
14741;DHT22;7462;53.530;9.414;2023-05-03T07:55:22;11.00;99.90
14741;DHT22;7462;53.530;9.414;2023-05-03T07:57:51;11.10;99.90
14741;DHT22;7462;53.530;9.414;2023-05-03T08:00:24;11.10;99.90
14741;DHT22;7462;53.530;9.414;2023-05-03T08:02:52;11.20;99.90
14741;DHT22;7462;53.530;9.414;2023-05-03T08:05:21;11.20;99.90
14741;DHT22;7462;53.530;9.414;2023-05-03T08:07:50;11.30;99.90
14741;DHT22;7462;53.530;9.414;2023-05-03T08:10:19;11.30;99.90
14741;DHT22;7462;53.530;9.414;2023-05-03T08:12:48;11.10;99.90
14741;DHT22;7462;53.530;9.414;2023-05-03T08:15:17;11.00;99.90
14741;DHT22;7462;53.530;9.414;2023-05-03T08:17:45;10.80;99.90
14741;DHT22;7462;53.530;9.414;2023-05-03T08:20:13;10.70;99.90
14741;DHT22;7462;53.530;9.414;2023-05-03T08:22:42;10.70;99.90
14741;DHT22;7462;53.530;9.414;2023-05-03T08:25:12;10.60;99.90
14741;DHT22;7462;53.530;9.414;2023-05-03T08:27:43;10.60;99.90
14741;DHT22;7462;53.530;9.414;2023-05-03T08:30:12;10.60;99.90
14741;DHT22;7462;53.530;9.414;2023-05-03T08:32:40;10.70;99.90
14741;DHT22;7462;53.530;9.414;2023-05-03T08:35:09;10.70;99.90
14741;DHT22;7462;53.530;9.414;2023-05-03T08:37:40;10.80;99.90
14741;DHT22;7462;53.530;9.414;2023-05-03T08:40:10;10.70;99.90
14741;DHT22;7462;53.530;9.414;2023-05-03T08:42:40;10.70;99.90
14741;DHT22;7462;53.530;9.414;2023-05-03T08:45:11;10.80;99.90
14741;DHT22;7462;53.530;9.414;2023-05-03T08:47:41;10.80;99.90
14741;DHT22;7462;53.530;9.414;2023-05-03T08:50:12;10.90;99.90
14741;DHT22;7462;53.530;9.414;2023-05-03T08:52:41;11.00;99.90
14741;DHT22;7462;53.530;9.414;2023-05-03T08:55:10;10.90;99.90
14741;DHT22;7462;53.530;9.414;2023-05-03T08:57:38;10.80;99.90
14741;DHT22;7462;53.530;9.414;2023-05-03T09:00:07;10.70;99.90
14741;DHT22;7462;53.530;9.414;2023-05-03T09:02:40;10.80;99.90
14741;DHT22;7462;53.530;9.414;2023-05-03T09:05:31;10.80;99.90
14741;DHT22;7462;53.530;9.414;2023-05-03T09:08:00;10.80;99.90
14741;DHT22;7462;53.530;9.414;2023-05-03T09:10:29;10.80;99.90
14741;DHT22;7462;53.530;9.414;2023-05-03T09:12:58;10.90;99.90
14741;DHT22;7462;53.530;9.414;2023-05-03T09:15:27;11.00;99.90
14741;DHT22;7462;53.530;9.414;2023-05-03T09:18:11;11.20;99.90
14741;DHT22;7462;53.530;9.414;2023-05-03T09:20:42;11.50;99.90
14741;DHT22;7462;53.530;9.414;2023-05-03T09:23:18;11.60;99.90
14741;DHT22;7462;53.530;9.414;2023-05-03T09:25:55;11.60;99.90
14741;DHT22;7462;53.530;9.414;2023-05-03T09:28:24;11.70;99.90
14741;DHT22;7462;53.530;9.414;2023-05-03T09:31:03;11.80;99.90
14741;DHT22;7462;53.530;9.414;2023-05-03T09:33:33;11.70;99.90
14741;DHT22;7462;53.530;9.414;2023-05-03T09:36:03;11.50;99.90
14741;DHT22;7462;53.530;9.414;2023-05-03T09:38:33;11.40;99.90
14741;DHT22;7462;53.530;9.414;2023-05-03T09:41:02;11.40;99.90
14741;DHT22;7462;53.530;9.414;2023-05-03T09:43:33;11.40;99.90
14741;DHT22;7462;53.530;9.414;2023-05-03T09:46:08;11.40;99.90
14741;DHT22;7462;53.530;9.414;2023-05-03T09:48:38;11.40;99.90
14741;DHT22;7462;53.530;9.414;2023-05-03T09:51:08;11.30;99.90
14741;DHT22;7462;53.530;9.414;2023-05-03T09:53:38;11.50;99.90
14741;DHT22;7462;53.530;9.414;2023-05-03T09:56:09;11.60;99.90
14741;DHT22;7462;53.530;9.414;2023-05-03T09:58:39;11.60;99.90
14741;DHT22;7462;53.530;9.414;2023-05-03T10:01:08;11.70;99.90
14741;DHT22;7462;53.530;9.414;2023-05-03T10:03:39;11.60;99.90
14741;DHT22;7462;53.530;9.414;2023-05-03T10:06:24;11.40;99.90
14741;DHT22;7462;53.530;9.414;2023-05-03T10:09:00;11.30;99.90
14741;DHT22;7462;53.530;9.414;2023-05-03T10:11:29;11.20;99.90
14741;DHT22;7462;53.530;9.414;2023-05-03T10:13:57;11.30;99.90
14741;DHT22;7462;53.530;9.414;2023-05-03T10:16:29;11.30;99.90
14741;DHT22;7462;53.530;9.414;2023-05-03T10:19:05;11.50;99.90
14741;DHT22;7462;53.530;9.414;2023-05-03T10:21:47;11.60;99.90
14741;DHT22;7462;53.530;9.414;2023-05-03T10:24:18;11.70;99.90
14741;DHT22;7462;53.530;9.414;2023-05-03T10:29:46;11.70;99.90
14741;DHT22;7462;53.530;9.414;2023-05-03T10:32:35;11.70;99.90
14741;DHT22;7462;53.530;9.414;2023-05-03T10:35:09;11.80;99.90
14741;DHT22;7462;53.530;9.414;2023-05-03T10:37:40;11.90;99.90
14741;DHT22;7462;53.530;9.414;2023-05-03T10:40:10;11.80;99.90
14741;DHT22;7462;53.530;9.414;2023-05-03T10:42:43;11.80;99.90
14741;DHT22;7462;53.530;9.414;2023-05-03T10:45:25;11.90;99.90
14741;DHT22;7462;53.530;9.414;2023-05-03T10:48:16;11.80;99.90
14741;DHT22;7462;53.530;9.414;2023-05-03T10:50:48;11.90;99.90
14741;DHT22;7462;53.530;9.414;2023-05-03T10:53:41;12.10;99.90
14741;DHT22;7462;53.530;9.414;2023-05-03T10:56:11;12.10;99.90
14741;DHT22;7462;53.530;9.414;2023-05-03T10:58:42;12.30;99.90
14741;DHT22;7462;53.530;9.414;2023-05-03T11:01:12;12.40;99.90
14741;DHT22;7462;53.530;9.414;2023-05-03T11:03:48;12.70;99.90
14741;DHT22;7462;53.530;9.414;2023-05-03T11:06:33;12.60;99.90
14741;DHT22;7462;53.530;9.414;2023-05-03T11:09:03;12.40;99.90
14741;DHT22;7462;53.530;9.414;2023-05-03T11:11:33;12.30;99.90
14741;DHT22;7462;53.530;9.414;2023-05-03T11:14:02;12.30;99.90
14741;DHT22;7462;53.530;9.414;2023-05-03T11:16:30;12.50;99.90
14741;DHT22;7462;53.530;9.414;2023-05-03T11:19:00;12.60;99.90
14741;DHT22;7462;53.530;9.414;2023-05-03T11:21:28;12.70;99.90
14741;DHT22;7462;53.530;9.414;2023-05-03T11:24:00;12.60;99.90
14741;DHT22;7462;53.530;9.414;2023-05-03T11:26:34;12.30;99.90
14741;DHT22;7462;53.530;9.414;2023-05-03T11:29:02;12.20;99.90
14741;DHT22;7462;53.530;9.414;2023-05-03T11:31:31;12.10;99.90
14741;DHT22;7462;53.530;9.414;2023-05-03T11:33:59;12.20;99.90
14741;DHT22;7462;53.530;9.414;2023-05-03T11:36:27;12.40;99.90
14741;DHT22;7462;53.530;9.414;2023-05-03T11:38:59;12.60;99.90
14741;DHT22;7462;53.530;9.414;2023-05-03T11:41:27;12.60;99.90
14741;DHT22;7462;53.530;9.414;2023-05-03T11:43:55;12.80;99.90
14741;DHT22;7462;53.530;9.414;2023-05-03T11:46:40;12.90;99.90
14741;DHT22;7462;53.530;9.414;2023-05-03T11:49:09;12.80;99.90
14741;DHT22;7462;53.530;9.414;2023-05-03T11:51:39;12.80;99.90
14741;DHT22;7462;53.530;9.414;2023-05-03T11:54:08;13.00;99.90
14741;DHT22;7462;53.530;9.414;2023-05-03T11:56:54;13.20;99.90
14741;DHT22;7462;53.530;9.414;2023-05-03T11:59:33;13.40;99.90
14741;DHT22;7462;53.530;9.414;2023-05-03T12:02:02;13.60;99.90
14741;DHT22;7462;53.530;9.414;2023-05-03T12:04:31;13.50;99.90
14741;DHT22;7462;53.530;9.414;2023-05-03T12:07:00;13.60;99.90
14741;DHT22;7462;53.530;9.414;2023-05-03T12:09:32;13.40;99.90
14741;DHT22;7462;53.530;9.414;2023-05-03T12:12:01;13.40;99.90
14741;DHT22;7462;53.530;9.414;2023-05-03T12:14:55;13.40;99.90
14741;DHT22;7462;53.530;9.414;2023-05-03T12:17:34;13.20;99.90
14741;DHT22;7462;53.530;9.414;2023-05-03T12:20:16;13.30;99.90
14741;DHT22;7462;53.530;9.414;2023-05-03T12:22:48;13.20;99.90
14741;DHT22;7462;53.530;9.414;2023-05-03T12:25:20;13.40;99.90
14741;DHT22;7462;53.530;9.414;2023-05-03T12:27:53;13.60;99.90
14741;DHT22;7462;53.530;9.414;2023-05-03T12:30:41;13.70;99.90
14741;DHT22;7462;53.530;9.414;2023-05-03T12:33:12;13.60;99.90
14741;DHT22;7462;53.530;9.414;2023-05-03T12:35:42;13.30;99.90
14741;DHT22;7462;53.530;9.414;2023-05-03T12:38:13;13.20;99.90
14741;DHT22;7462;53.530;9.414;2023-05-03T12:40:45;13.20;99.90
14741;DHT22;7462;53.530;9.414;2023-05-03T12:43:14;13.50;99.90
14741;DHT22;7462;53.530;9.414;2023-05-03T12:45:42;13.50;99.90
14741;DHT22;7462;53.530;9.414;2023-05-03T12:48:24;13.30;99.90
14741;DHT22;7462;53.530;9.414;2023-05-03T12:50:52;13.20;99.90
14741;DHT22;7462;53.530;9.414;2023-05-03T12:53:41;13.00;99.90
14741;DHT22;7462;53.530;9.414;2023-05-03T12:56:14;12.90;99.90
14741;DHT22;7462;53.530;9.414;2023-05-03T12:58:43;13.00;99.90
14741;DHT22;7462;53.530;9.414;2023-05-03T13:01:18;13.10;99.90
14741;DHT22;7462;53.530;9.414;2023-05-03T13:04:07;13.50;99.90
14741;DHT22;7462;53.530;9.414;2023-05-03T13:06:55;13.60;99.90
14741;DHT22;7462;53.530;9.414;2023-05-03T13:09:26;13.70;99.90
14741;DHT22;7462;53.530;9.414;2023-05-03T13:12:16;13.80;99.90
14741;DHT22;7462;53.530;9.414;2023-05-03T13:14:46;13.60;99.90
14741;DHT22;7462;53.530;9.414;2023-05-03T13:17:16;13.50;99.90
14741;DHT22;7462;53.530;9.414;2023-05-03T13:19:46;13.10;99.90
14741;DHT22;7462;53.530;9.414;2023-05-03T13:22:14;13.00;99.90
14741;DHT22;7462;53.530;9.414;2023-05-03T13:24:44;13.10;99.90
14741;DHT22;7462;53.530;9.414;2023-05-03T13:27:13;13.30;99.90
14741;DHT22;7462;53.530;9.414;2023-05-03T13:29:43;13.50;99.90
14741;DHT22;7462;53.530;9.414;2023-05-03T13:32:14;13.60;99.90
14741;DHT22;7462;53.530;9.414;2023-05-03T13:34:43;13.70;99.90
14741;DHT22;7462;53.530;9.414;2023-05-03T13:37:11;13.80;99.90
14741;DHT22;7462;53.530;9.414;2023-05-03T13:39:44;13.90;99.90
14741;DHT22;7462;53.530;9.414;2023-05-03T13:42:12;13.90;99.90
14741;DHT22;7462;53.530;9.414;2023-05-03T13:44:40;13.80;99.90
14741;DHT22;7462;53.530;9.414;2023-05-03T13:47:10;13.70;99.90
14741;DHT22;7462;53.530;9.414;2023-05-03T13:49:38;13.50;99.90
14741;DHT22;7462;53.530;9.414;2023-05-03T13:52:07;13.60;99.90
14741;DHT22;7462;53.530;9.414;2023-05-03T13:54:35;13.70;99.90
14741;DHT22;7462;53.530;9.414;2023-05-03T13:57:03;13.70;99.90
14741;DHT22;7462;53.530;9.414;2023-05-03T13:59:31;13.90;99.90
14741;DHT22;7462;53.530;9.414;2023-05-03T14:01:59;14.20;99.90
14741;DHT22;7462;53.530;9.414;2023-05-03T14:04:29;14.20;99.90
14741;DHT22;7462;53.530;9.414;2023-05-03T14:06:57;14.40;99.90
14741;DHT22;7462;53.530;9.414;2023-05-03T14:09:28;14.40;99.90
14741;DHT22;7462;53.530;9.414;2023-05-03T14:11:56;14.70;99.90
14741;DHT22;7462;53.530;9.414;2023-05-03T14:14:25;14.60;99.90
14741;DHT22;7462;53.530;9.414;2023-05-03T14:16:54;14.40;99.90
14741;DHT22;7462;53.530;9.414;2023-05-03T14:19:22;14.10;99.90
14741;DHT22;7462;53.530;9.414;2023-05-03T14:21:55;13.90;99.90
14741;DHT22;7462;53.530;9.414;2023-05-03T14:24:25;13.80;99.90
14741;DHT22;7462;53.530;9.414;2023-05-03T14:26:53;13.70;99.90
14741;DHT22;7462;53.530;9.414;2023-05-03T14:29:21;13.70;99.90
14741;DHT22;7462;53.530;9.414;2023-05-03T14:31:49;13.90;99.90
14741;DHT22;7462;53.530;9.414;2023-05-03T14:34:17;13.90;99.90
14741;DHT22;7462;53.530;9.414;2023-05-03T14:36:45;14.20;99.90
14741;DHT22;7462;53.530;9.414;2023-05-03T14:39:15;14.40;99.90
14741;DHT22;7462;53.530;9.414;2023-05-03T14:41:43;14.50;99.90
14741;DHT22;7462;53.530;9.414;2023-05-03T14:44:11;14.40;99.90
14741;DHT22;7462;53.530;9.414;2023-05-03T14:46:39;14.40;99.90
14741;DHT22;7462;53.530;9.414;2023-05-03T14:49:07;14.40;99.90
14741;DHT22;7462;53.530;9.414;2023-05-03T14:51:35;14.40;99.90
14741;DHT22;7462;53.530;9.414;2023-05-03T14:54:04;14.30;99.90
14741;DHT22;7462;53.530;9.414;2023-05-03T14:56:33;14.40;99.90
14741;DHT22;7462;53.530;9.414;2023-05-03T14:59:01;14.30;99.90
14741;DHT22;7462;53.530;9.414;2023-05-03T15:01:30;14.30;99.90
14741;DHT22;7462;53.530;9.414;2023-05-03T15:03:58;14.20;99.90
14741;DHT22;7462;53.530;9.414;2023-05-03T15:06:27;14.10;99.90
14741;DHT22;7462;53.530;9.414;2023-05-03T15:08:58;13.80;99.90
14741;DHT22;7462;53.530;9.414;2023-05-03T15:11:26;13.80;99.90
14741;DHT22;7462;53.530;9.414;2023-05-03T15:13:55;13.50;99.90
14741;DHT22;7462;53.530;9.414;2023-05-03T15:16:24;13.50;99.90
14741;DHT22;7462;53.530;9.414;2023-05-03T15:18:52;13.30;99.90
14741;DHT22;7462;53.530;9.414;2023-05-03T15:21:21;13.20;99.90
14741;DHT22;7462;53.530;9.414;2023-05-03T15:23:49;13.00;99.90
14741;DHT22;7462;53.530;9.414;2023-05-03T15:26:17;12.90;99.90
14741;DHT22;7462;53.530;9.414;2023-05-03T15:28:45;12.80;99.90
14741;DHT22;7462;53.530;9.414;2023-05-03T15:31:15;12.70;99.90
14741;DHT22;7462;53.530;9.414;2023-05-03T15:33:44;12.70;99.90
14741;DHT22;7462;53.530;9.414;2023-05-03T15:36:13;12.60;99.90
14741;DHT22;7462;53.530;9.414;2023-05-03T15:38:42;12.60;99.90
14741;DHT22;7462;53.530;9.414;2023-05-03T15:41:10;12.60;99.90
14741;DHT22;7462;53.530;9.414;2023-05-03T15:43:39;12.60;99.90
14741;DHT22;7462;53.530;9.414;2023-05-03T15:46:08;12.50;99.90
14741;DHT22;7462;53.530;9.414;2023-05-03T15:48:37;12.50;99.90
14741;DHT22;7462;53.530;9.414;2023-05-03T15:51:05;12.30;99.90
14741;DHT22;7462;53.530;9.414;2023-05-03T15:53:33;12.30;99.90
14741;DHT22;7462;53.530;9.414;2023-05-03T15:56:02;12.20;99.90
14741;DHT22;7462;53.530;9.414;2023-05-03T15:58:31;12.20;99.90
14741;DHT22;7462;53.530;9.414;2023-05-03T16:00:59;12.20;99.90
14741;DHT22;7462;53.530;9.414;2023-05-03T16:03:27;12.10;99.90
14741;DHT22;7462;53.530;9.414;2023-05-03T16:05:57;12.10;99.90
14741;DHT22;7462;53.530;9.414;2023-05-03T16:08:27;12.10;99.90
14741;DHT22;7462;53.530;9.414;2023-05-03T16:14:57;12.00;99.90
14741;DHT22;7462;53.530;9.414;2023-05-03T16:17:25;11.90;99.90
14741;DHT22;7462;53.530;9.414;2023-05-03T16:19:56;12.00;99.90